Time;durP1;ratioP1;P1;durP2;ratioP2;P2;SDS_P1;SDS_P2;PMS_P1;PMS_P2;Temp;Humidity;BMP_temperature;BMP_pressure;BME280_temperature;BME280_humidity;BME280_pressure;Samples;Min_cycle;Max_cycle;Signal;HPM_P1;HPM_P2
2021/09/30 00:01:08;;;;;;;;;0.00;0.00;;;;;12.91;57.42;102523.75;5061907;28;45293;-76
2021/09/30 00:03:34;;;;;;;;;0.00;0.00;;;;;12.85;57.11;102508.78;5063359;28;45248;-76
2021/09/30 00:05:59;;;;;;;;;0.00;0.00;;;;;12.69;57.37;102473.53;5062850;28;46439;-76
2021/09/30 00:08:24;;;;;;;;;0.00;0.00;;;;;12.78;57.30;102484.19;5062754;28;45302;-76
2021/09/30 00:11:05;;;;;;;;;0.00;0.00;;;;;12.92;57.14;102518.56;5061375;28;45482;-76
2021/09/30 00:45:55;;;;;;;;;0.00;0.00;;;;;12.75;58.41;102507.66;5082946;28;45509;-76
2021/09/30 01:46:57;;;;;;;;;0.00;0.00;;;;;12.73;58.06;102464.03;5064522;28;45231;-76
2021/09/30 03:00:23;;;;;;;;;0.00;0.00;;;;;12.43;58.64;102451.91;5084021;28;45295;-76
2021/09/30 03:02:52;;;;;;;;;0.00;0.00;;;;;12.11;58.62;102387.44;5084049;27;45293;-77
2021/09/30 03:05:20;;;;;;;;;0.00;0.00;;;;;12.30;58.25;102414.97;5084241;27;45334;-76
2021/09/30 03:07:46;;;;;;;;;0.00;0.00;;;;;12.35;58.40;102429.06;5082945;27;45389;-76
2021/09/30 03:10:13;;;;;;;;;0.00;0.00;;;;;12.51;58.43;102452.97;5083984;27;45395;-76
2021/09/30 03:12:40;;;;;;;;;0.00;0.00;;;;;12.38;58.51;102434.34;5083678;27;45413;-76
2021/09/30 03:15:30;;;;;;;;;0.00;0.00;;;;;12.45;58.51;102443.25;5082493;28;45337;-76
2021/09/30 03:20:46;;;;;;;;;0.00;0.00;;;;;12.46;58.51;102447.63;5083466;27;45216;-76
2021/09/30 03:23:32;;;;;;;;;0.00;0.00;;;;;12.54;58.05;102459.19;5083508;27;45476;-76
2021/09/30 03:25:58;;;;;;;;;0.00;0.00;;;;;12.39;58.39;102445.69;5082155;28;45393;-76
2021/09/30 03:28:26;;;;;;;;;0.00;0.00;;;;;12.36;58.55;102443.88;5082022;27;45574;-76
2021/09/30 03:30:54;;;;;;;;;0.00;0.00;;;;;12.34;58.58;102434.22;5081471;28;47249;-76
2021/09/30 03:33:20;;;;;;;;;0.00;0.00;;;;;12.54;58.68;102463.53;5083223;27;45381;-76
2021/09/30 03:35:47;;;;;;;;;0.50;0.00;;;;;12.53;58.52;102464.38;5082097;28;45327;-76
2021/09/30 03:38:13;;;;;;;;;0.00;0.00;;;;;12.40;58.38;102444.84;5081947;28;45263;-76
2021/09/30 03:40:38;;;;;;;;;0.00;0.00;;;;;12.39;58.38;102437.84;5083097;27;45480;-76
2021/09/30 03:43:05;;;;;;;;;0.00;0.00;;;;;12.50;58.55;102452.09;5081914;28;45332;-76
2021/09/30 03:45:31;;;;;;;;;1.50;0.00;;;;;12.55;58.58;102470.50;5082200;28;45277;-76
2021/09/30 03:47:57;;;;;;;;;0.00;0.00;;;;;12.21;58.24;102406.88;5081978;28;45425;-76
2021/09/30 03:50:25;;;;;;;;;0.00;0.00;;;;;12.29;58.37;102442.78;5081255;28;47289;-76
2021/09/30 03:53:09;;;;;;;;;0.00;0.00;;;;;12.43;59.02;102457.97;5082906;27;45320;-76
2021/09/30 04:01:17;;;;;;;;;0.00;0.00;;;;;12.15;58.85;102421.53;5082769;28;45677;-76
2021/09/30 04:03:43;;;;;;;;;0.00;0.00;;;;;12.09;59.15;102408.28;5081331;28;45298;-76
2021/09/30 04:06:09;;;;;;;;;0.00;0.00;;;;;12.37;59.11;102455.22;5081547;28;45418;-76
2021/09/30 04:08:35;;;;;;;;;0.00;0.00;;;;;12.52;59.19;102486.09;5081764;28;45598;-75
2021/09/30 04:11:01;;;;;;;;;0.00;0.00;;;;;12.39;59.30;102457.03;5082150;27;45591;-76
2021/09/30 04:13:27;;;;;;;;;0.00;0.00;;;;;12.49;58.75;102479.06;5061076;28;45304;-75
2021/09/30 04:15:52;;;;;;;;;0.25;0.00;;;;;12.39;58.69;102469.19;5060473;28;45306;-76
2021/09/30 04:18:18;;;;;;;;;0.00;0.00;;;;;12.47;58.92;102485.94;5060676;28;45441;-76
2021/09/30 04:20:45;;;;;;;;;0.00;0.00;;;;;12.28;59.14;102454.09;5065956;28;46660;-75
2021/09/30 04:23:10;;;;;;;;;0.00;0.00;;;;;12.47;58.97;102482.47;5070474;27;45368;-76
2021/09/30 04:25:36;;;;;;;;;0.00;0.00;;;;;12.46;59.14;102475.50;5080371;28;45371;-74
2021/09/30 04:28:02;;;;;;;;;0.00;0.00;;;;;12.36;59.30;102456.94;5073831;27;45357;-74
2021/09/30 04:30:28;;;;;;;;;0.00;0.00;;;;;12.51;58.81;102476.50;5075759;28;45614;-75
2021/09/30 04:32:53;;;;;;;;;0.00;0.00;;;;;12.40;58.83;102471.84;5080503;28;45325;-75
2021/09/30 04:35:18;;;;;;;;;0.00;0.00;;;;;12.22;59.20;102445.22;5060975;28;45348;-77
2021/09/30 04:37:44;;;;;;;;;0.00;0.00;;;;;12.45;59.31;102476.31;5067803;28;45403;-75
2021/09/30 04:40:10;;;;;;;;;0.00;0.00;;;;;12.38;59.22;102470.03;5073155;27;45440;-75
2021/09/30 04:42:36;;;;;;;;;0.00;0.00;;;;;12.37;59.22;102457.84;5060554;28;45230;-75
2021/09/30 04:45:02;;;;;;;;;0.00;0.00;;;;;12.34;59.63;102450.78;5060443;28;45298;-76
2021/09/30 04:47:27;;;;;;;;;0.00;0.00;;;;;12.36;59.22;102453.44;5062303;28;45482;-75
2021/09/30 04:49:53;;;;;;;;;0.00;0.00;;;;;12.30;59.37;102446.31;5062398;28;45428;-76
2021/09/30 04:52:20;;;;;;;;;0.00;0.00;;;;;12.46;59.19;102468.53;5060887;28;45266;-74
2021/09/30 04:54:45;;;;;;;;;0.00;0.00;;;;;12.40;59.14;102450.06;5061488;28;45426;-75
2021/09/30 04:57:10;;;;;;;;;0.25;0.25;;;;;12.21;58.92;102410.38;5062036;28;45352;-75
2021/09/30 04:59:36;;;;;;;;;0.00;0.00;;;;;12.44;58.96;102449.31;5061081;28;48131;-75
2021/09/30 05:02:01;;;;;;;;;1.50;0.00;;;;;12.45;59.63;102452.81;5073470;28;45313;-75
2021/09/30 05:04:26;;;;;;;;;0.00;0.00;;;;;12.03;59.34;102389.78;5061641;28;45241;-75
2021/09/30 05:06:52;;;;;;;;;0.00;0.00;;;;;12.20;59.12;102420.78;5061463;28;45341;-75
2021/09/30 05:09:18;;;;;;;;;0.00;0.00;;;;;12.21;59.04;102417.31;5077091;27;45615;-76
2021/09/30 05:11:51;;;;;;;;;0.00;0.00;;;;;12.37;59.26;102442.16;5073483;28;45299;-75
2021/09/30 05:14:16;;;;;;;;;0.75;0.00;;;;;12.54;59.41;102485.31;5062530;28;45386;-76
2021/09/30 05:16:41;;;;;;;;;0.00;0.00;;;;;12.46;59.15;102465.91;5060687;28;45267;-76
2021/09/30 05:19:07;;;;;;;;;0.00;0.00;;;;;12.49;59.44;102466.00;5066423;28;48044;-76
2021/09/30 05:21:32;;;;;;;;;0.00;0.00;;;;;12.44;59.51;102465.00;5061399;27;45556;-78
2021/09/30 05:23:58;;;;;;;;;0.00;0.00;;;;;12.45;59.50;102463.25;5061562;28;45486;-78
2021/09/30 05:26:27;;;;;;;;;0.00;0.00;;;;;12.50;59.50;102474.72;5060401;28;45299;-78
2021/09/30 05:28:53;;;;;;;;;0.50;0.00;;;;;12.57;59.25;102481.91;5060893;28;46200;-77
2021/09/30 05:31:18;;;;;;;;;0.00;0.00;;;;;12.45;59.26;102458.03;5059688;28;45204;-77
2021/09/30 05:33:44;;;;;;;;;1.75;1.00;;;;;12.45;59.59;102453.69;5059759;28;45238;-77
2021/09/30 05:36:09;;;;;;;;;0.00;0.00;;;;;12.43;59.70;102446.66;5070815;28;45548;-76
2021/09/30 05:38:34;;;;;;;;;0.00;0.00;;;;;12.36;59.51;102451.72;5080825;27;45389;-75
2021/09/30 05:41:00;;;;;;;;;0.00;0.00;;;;;12.60;59.56;102483.69;5079025;27;45327;-75
2021/09/30 05:46:14;;;;;;;;;0.00;0.00;;;;;12.39;59.46;102457.03;5071417;28;45594;-77
2021/09/30 05:48:39;;;;;;;;;0.00;0.00;;;;;12.50;59.71;102475.59;5078793;27;46095;-76
2021/09/30 05:51:05;;;;;;;;;0.00;0.00;;;;;12.43;59.45;102460.59;5058848;28;45408;-76
2021/09/30 05:53:30;;;;;;;;;0.00;0.00;;;;;12.16;59.59;102417.19;5065546;28;45392;-75
2021/09/30 05:55:55;;;;;;;;;0.00;0.00;;;;;12.51;59.60;102471.28;5079384;28;45282;-76
2021/09/30 05:58:21;;;;;;;;;0.00;0.00;;;;;12.67;58.90;102493.47;5083900;27;45565;-77
2021/09/30 06:01:39;;;;;;;;;0.00;0.00;;;;;12.70;59.19;102492.66;5082458;28;45670;-76
2021/09/30 06:04:37;;;;;;;;;4.75;0.75;;;;;12.49;59.13;102446.81;5080754;28;45305;-80
2021/09/30 06:14:22;;;;;;;;;0.00;0.00;;;;;12.83;58.53;102492.19;5083972;27;45433;-75
2021/09/30 06:16:50;;;;;;;;;0.00;0.00;;;;;12.57;58.35;102445.31;5083801;27;45258;-75
2021/09/30 06:19:25;;;;;;;;;0.00;0.00;;;;;12.75;58.17;102472.81;5083862;28;45438;-75
2021/09/30 06:21:52;;;;;;;;;0.00;0.00;;;;;12.79;57.89;102478.16;5084375;27;45360;-75
2021/09/30 06:24:22;;;;;;;;;0.00;0.00;;;;;12.76;58.16;102464.09;5083933;27;45334;-75
2021/09/30 06:26:48;;;;;;;;;0.00;0.00;;;;;12.97;58.14;102489.06;5083807;27;45429;-75
2021/09/30 06:29:14;;;;;;;;;0.00;0.00;;;;;12.82;57.93;102466.91;5083748;28;45380;-75
2021/09/30 06:31:40;;;;;;;;;0.00;0.00;;;;;12.88;57.96;102474.91;5083989;27;45290;-75
2021/09/30 06:34:05;;;;;;;;;0.00;0.00;;;;;13.00;57.94;102489.13;5082519;28;45360;-74
2021/09/30 06:36:31;;;;;;;;;0.00;0.00;;;;;12.97;57.86;102473.38;5084070;27;45321;-76
2021/09/30 06:38:56;;;;;;;;;0.00;0.00;;;;;12.98;57.55;102475.13;5082355;27;46979;-76
2021/09/30 06:41:22;;;;;;;;;0.00;0.00;;;;;12.89;57.51;102445.31;5083403;27;45340;-75
2021/09/30 06:43:47;;;;;;;;;0.75;0.75;;;;;13.11;57.55;102487.69;5083405;27;45284;-74
2021/09/30 06:46:12;;;;;;;;;0.25;0.00;;;;;13.04;57.18;102470.97;5082431;28;45347;-75
2021/09/30 06:48:38;;;;;;;;;0.00;0.00;;;;;13.04;57.00;102464.84;5081635;28;47216;-74
2021/09/30 06:51:04;;;;;;;;;0.00;0.00;;;;;13.13;57.03;102483.38;5081549;28;45353;-74
2021/09/30 06:53:30;;;;;;;;;0.00;0.00;;;;;13.04;56.98;102455.28;5081755;28;45250;-75
2021/09/30 06:56:00;;;;;;;;;0.75;0.00;;;;;13.21;56.94;102478.38;5082237;28;45338;-76
2021/09/30 06:58:26;;;;;;;;;0.00;0.00;;;;;13.01;56.76;102446.47;5082736;28;45674;-74
2021/09/30 07:00:56;;;;;;;;;0.00;0.00;;;;;13.22;56.97;102471.38;5082063;28;45412;-74
2021/09/30 07:03:23;;;;;;;;;0.00;0.00;;;;;13.22;56.78;102469.66;5083270;27;45168;-77
2021/09/30 07:05:48;;;;;;;;;0.00;0.00;;;;;13.09;56.65;102439.72;5053789;28;45589;-76
2021/09/30 07:08:14;;;;;;;;;0.00;0.00;;;;;13.10;56.89;102430.13;5061685;28;45341;-79
2021/09/30 07:10:39;;;;;;;;;0.50;0.25;;;;;13.19;56.37;102440.81;5094897;27;45441;-77
2021/09/30 07:13:04;;;;;;;;;0.00;0.00;;;;;13.40;56.51;102455.28;5062928;28;45364;-76
2021/09/30 07:15:30;;;;;;;;;0.00;0.00;;;;;13.39;56.61;102453.53;5081309;28;45288;-77
2021/09/30 07:17:56;;;;;;;;;0.00;0.00;;;;;13.43;55.96;102453.63;5081425;28;46998;-76
2021/09/30 07:20:22;;;;;;;;;0.00;0.00;;;;;13.41;55.91;102450.09;5073310;27;45546;-76
2021/09/30 07:22:47;;;;;;;;;0.00;0.00;;;;;13.43;56.31;102448.41;5062882;28;45413;-77
2021/09/30 07:25:13;;;;;;;;;0.00;0.00;;;;;13.62;55.50;102475.03;5074869;28;45453;-77
2021/09/30 07:27:38;;;;;;;;;0.00;0.00;;;;;13.36;55.64;102425.56;5072254;28;46723;-78
2021/09/30 07:30:05;;;;;;;;;0.00;0.00;;;;;13.79;55.87;102482.41;5077427;28;45880;-77
2021/09/30 07:32:31;;;;;;;;;0.00;0.00;;;;;13.58;55.71;102441.78;5070056;28;45193;-76
2021/09/30 07:34:56;;;;;;;;;0.00;0.00;;;;;13.54;55.37;102430.34;5067175;27;45468;-75
2021/09/30 07:37:21;;;;;;;;;0.00;0.00;;;;;13.81;55.75;102476.34;5069075;28;45591;-75
2021/09/30 07:39:47;;;;;;;;;0.00;0.00;;;;;13.59;55.36;102416.50;5081657;28;45231;-75
2021/09/30 07:42:13;;;;;;;;;0.00;0.00;;;;;13.70;55.11;102430.72;5072070;28;45319;-76
2021/09/30 07:44:38;;;;;;;;;0.00;0.00;;;;;13.98;55.06;102465.38;5074488;28;45477;-75
2021/09/30 07:47:04;;;;;;;;;0.00;0.00;;;;;13.60;54.96;102395.59;5081054;28;48585;-76
2021/09/30 07:49:30;;;;;;;;;0.50;0.00;;;;;14.15;54.72;102470.97;5082255;27;45413;-76
2021/09/30 07:51:56;;;;;;;;;0.00;0.00;;;;;14.26;54.44;102483.41;5069387;27;45338;-80
2021/09/30 07:54:22;;;;;;;;;0.00;0.00;;;;;14.09;55.01;102434.16;5061292;27;45425;-77
2021/09/30 07:56:50;;;;;;;;;0.00;0.00;;;;;14.06;54.73;102392.22;5062495;28;45434;-78
2021/09/30 07:59:22;;;;;;;;;0.00;0.00;;;;;14.35;54.57;102425.09;5061036;28;45457;-79
2021/09/30 08:01:47;;;;;;;;;0.00;0.00;;;;;14.35;54.23;102415.50;5061399;28;45386;-79
2021/09/30 08:04:14;;;;;;;;;0.00;0.00;;;;;14.25;54.02;102392.59;5062393;28;45334;-77
2021/09/30 08:06:40;;;;;;;;;0.00;0.00;;;;;14.43;53.72;102418.28;5074713;27;46368;-77
2021/09/30 08:09:08;;;;;;;;;0.00;0.00;;;;;14.56;54.26;102435.09;5069830;28;45362;-79
2021/09/30 08:11:33;;;;;;;;;1.00;0.00;;;;;14.47;53.27;102425.34;5072739;28;45473;-79
2021/09/30 08:13:59;;;;;;;;;0.00;0.00;;;;;14.61;53.25;102470.13;5069779;28;45434;-78
2021/09/30 08:16:27;;;;;;;;;0.00;0.00;;;;;14.56;53.40;102472.69;5075347;28;48483;-79
2021/09/30 08:18:52;;;;;;;;;1.00;0.00;;;;;14.26;53.66;102431.91;5070383;28;45297;-79
2021/09/30 08:21:18;;;;;;;;;0.00;0.00;;;;;14.58;53.43;102493.69;5074399;28;45341;-77
2021/09/30 08:23:45;;;;;;;;;1.00;0.00;;;;;14.64;53.74;102491.16;5067574;28;45363;-78
2021/09/30 08:26:10;;;;;;;;;0.00;0.00;;;;;14.61;53.79;102471.91;5066041;28;46146;-79
2021/09/30 08:28:37;;;;;;;;;0.50;0.50;;;;;14.70;53.39;102493.91;5074540;28;45436;-79
2021/09/30 08:31:06;;;;;;;;;0.00;0.00;;;;;14.72;53.28;102498.28;5081342;28;45308;-80
2021/09/30 08:33:39;;;;;;;;;0.00;0.00;;;;;14.54;53.33;102458.66;5083269;27;45349;-81
2021/09/30 08:36:06;;;;;;;;;0.00;0.00;;;;;14.46;52.96;102448.88;5075426;28;47733;-80
2021/09/30 08:38:32;;;;;;;;;0.00;0.00;;;;;14.67;52.32;102490.38;5076110;28;45716;-78
2021/09/30 08:40:57;;;;;;;;;0.00;0.00;;;;;14.42;52.83;102443.59;5079716;27;45389;-78
2021/09/30 08:43:23;;;;;;;;;0.00;0.00;;;;;14.67;52.31;102488.59;5077806;27;45315;-78
2021/09/30 08:45:48;;;;;;;;;0.00;0.00;;;;;14.27;52.03;102422.34;5061593;28;45361;-77
2021/09/30 08:48:15;;;;;;;;;0.00;0.00;;;;;14.61;52.31;102474.50;5060775;28;45724;-78
2021/09/30 08:50:41;;;;;;;;;0.75;0.00;;;;;14.28;51.97;102424.09;5071809;28;45241;-78
2021/09/30 08:53:11;;;;;;;;;0.00;0.00;;;;;14.61;52.27;102472.75;5080453;27;45260;-77
2021/09/30 08:55:37;;;;;;;;;0.00;0.00;;;;;14.53;52.27;102438.56;5082305;27;46175;-78
2021/09/30 08:58:04;;;;;;;;;0.00;0.00;;;;;14.29;52.31;102384.81;5062509;27;45384;-78
2021/09/30 09:00:31;;;;;;;;;0.00;0.00;;;;;14.69;51.75;102436.22;5060610;28;45289;-77
2021/09/30 09:02:57;;;;;;;;;0.00;0.00;;;;;14.81;51.68;102428.63;5080451;28;45362;-77
2021/09/30 09:05:23;;;;;;;;;1.00;0.00;;;;;15.06;50.87;102470.13;5073849;28;48377;-77
2021/09/30 09:08:01;;;;;;;;;0.00;0.00;;;;;14.89;50.59;102438.38;5059480;28;45582;-77
2021/09/30 09:10:30;;;;;;;;;0.75;0.75;;;;;15.01;50.29;102449.03;5060907;28;45347;-78
2021/09/30 09:13:22;;;;;;;;;0.75;0.75;;;;;15.12;49.91;102458.84;5092776;27;45533;-77
2021/09/30 09:15:57;;;;;;;;;0.00;0.00;;;;;14.84;49.75;102413.78;5080335;27;46001;-78
2021/09/30 09:18:32;;;;;;;;;0.00;0.00;;;;;15.04;49.73;102437.75;5061740;27;45276;-77
2021/09/30 09:21:25;;;;;;;;;0.00;0.00;;;;;15.11;49.81;102447.50;5060388;28;45401;-78
2021/09/30 09:23:56;;;;;;;;;0.00;0.00;;;;;14.82;49.12;102411.13;5060390;28;45365;-77
2021/09/30 09:26:28;;;;;;;;;0.00;0.00;;;;;15.15;49.86;102454.53;5077113;28;46187;-78
2021/09/30 09:29:09;;;;;;;;;0.00;0.00;;;;;15.22;49.45;102441.53;5075091;28;45309;-77
2021/09/30 09:31:46;;;;;;;;;0.00;0.00;;;;;15.10;49.30;102426.47;5083923;28;45389;-77
2021/09/30 09:34:39;;;;;;;;;0.00;0.00;;;;;15.29;49.17;102440.78;5083858;28;45397;-78
2021/09/30 09:37:40;;;;;;;;;0.00;0.00;;;;;15.44;48.26;102443.63;5073778;28;45422;-78
2021/09/30 09:40:18;;;;;;;;;0.00;0.00;;;;;15.14;47.64;102391.56;5092957;27;46359;-77
2021/09/30 09:42:45;;;;;;;;;0.00;0.00;;;;;15.19;48.30;102398.66;5083926;27;45262;-78
2021/09/30 09:45:13;;;;;;;;;0.00;0.00;;;;;15.54;47.68;102438.53;5083810;28;45576;-77
2021/09/30 09:47:41;;;;;;;;;0.00;0.00;;;;;15.20;47.78;102371.53;5064868;27;45659;-77
2021/09/30 09:50:22;;;;;;;;;0.00;0.00;;;;;15.64;46.78;102439.53;5066013;28;45208;-78
2021/09/30 09:52:52;;;;;;;;;0.00;0.00;;;;;15.54;47.40;102405.31;5079998;28;45370;-78
2021/09/30 09:55:36;;;;;;;;;1.00;0.00;;;;;15.90;47.58;102452.19;5085326;28;45495;-77
2021/09/30 09:58:05;;;;;;;;;0.00;0.00;;;;;15.90;46.78;102441.66;5080889;28;47038;-77
2021/09/30 10:00:56;;;;;;;;;2.00;2.00;;;;;16.00;46.98;102437.44;5078584;28;45409;-78
2021/09/30 10:03:26;;;;;;;;;0.00;0.00;;;;;15.64;45.76;102373.91;5087929;28;44844;-77
2021/09/30 10:05:54;;;;;;;;;0.00;0.00;;;;;15.81;46.84;102396.03;5073881;28;45508;-78
2021/09/30 10:08:19;;;;;;;;;0.00;0.00;;;;;15.89;46.41;102377.75;5069806;28;46538;-81
2021/09/30 10:10:47;;;;;;;;;0.00;0.00;;;;;16.30;46.64;102428.19;5065844;28;45432;-79
2021/09/30 10:13:14;;;;;;;;;0.00;0.00;;;;;16.05;45.97;102367.47;5083243;28;45266;-79
2021/09/30 10:15:40;;;;;;;;;0.00;0.00;;;;;16.18;45.78;102377.28;5081337;28;45475;-77
2021/09/30 10:18:09;;;;;;;;;0.00;0.00;;;;;16.59;43.89;102448.66;5072413;28;47213;-78
2021/09/30 10:20:38;;;;;;;;;0.00;0.00;;;;;16.37;44.47;102416.00;5068418;27;45424;-78
2021/09/30 10:23:06;;;;;;;;;0.00;0.00;;;;;16.00;44.82;102367.44;5089269;27;45315;-78
2021/09/30 10:25:38;;;;;;;;;0.00;0.00;;;;;15.94;44.87;102365.56;5076271;28;45334;-78
2021/09/30 10:28:08;;;;;;;;;0.00;0.00;;;;;16.10;44.16;102392.03;5081052;28;47243;-78
2021/09/30 10:30:46;;;;;;;;;0.00;0.00;;;;;16.13;44.26;102435.84;5081637;28;45964;-78
2021/09/30 10:33:14;;;;;;;;;0.00;0.00;;;;;15.80;43.84;102382.88;5081269;27;45305;-78
2021/09/30 10:35:45;;;;;;;;;0.00;0.00;;;;;16.10;44.41;102426.19;5077975;27;45564;-78
2021/09/30 10:38:29;;;;;;;;;0.00;0.00;;;;;15.94;44.88;102375.19;5081312;27;47183;-78
2021/09/30 10:41:00;;;;;;;;;0.00;0.00;;;;;15.94;44.31;102368.19;5080698;28;45249;-76
2021/09/30 10:43:27;;;;;;;;;0.00;0.00;;;;;16.18;44.29;102419.31;5078363;27;45315;-79
2021/09/30 10:45:52;;;;;;;;;0.00;0.00;;;;;16.27;44.63;102404.50;5062564;28;45371;-78
2021/09/30 10:48:24;;;;;;;;;0.00;0.00;;;;;16.08;44.54;102357.00;5061220;28;47548;-78
2021/09/30 10:50:59;;;;;;;;;0.00;0.00;;;;;16.44;44.08;102408.19;5061655;28;45879;-78
2021/09/30 10:54:00;;;;;;;;;0.00;0.00;;;;;16.61;43.82;102403.97;5063432;28;45737;-79
2021/09/30 10:56:33;;;;;;;;;0.00;0.00;;;;;16.52;44.18;102371.50;5043893;28;45696;-78
2021/09/30 10:59:23;;;;;;;;;0.00;0.00;;;;;16.52;43.83;102349.56;5074046;28;48720;-78
2021/09/30 11:01:48;;;;;;;;;0.00;0.00;;;;;16.62;44.03;102348.78;5075552;28;45405;-78
2021/09/30 11:04:16;;;;;;;;;0.00;0.00;;;;;16.83;43.38;102387.56;5080861;27;45256;-78
2021/09/30 11:06:42;;;;;;;;;0.00;0.00;;;;;16.53;43.40;102338.19;5073080;28;45492;-77
2021/09/30 11:09:21;;;;;;;;;1.00;0.00;;;;;16.76;43.42;102377.84;5073367;27;46294;-78
2021/09/30 11:12:05;;;;;;;;;0.00;0.00;;;;;16.72;42.78;102360.25;5060449;28;45278;-79
2021/09/30 11:14:31;;;;;;;;;0.25;0.00;;;;;16.39;42.57;102315.31;5060770;28;45351;-78
2021/09/30 11:16:57;;;;;;;;;0.00;0.00;;;;;16.65;43.48;102368.97;5067291;28;45576;-78
2021/09/30 11:19:27;;;;;;;;;0.75;0.00;;;;;16.37;43.32;102327.53;5098858;27;47843;-78
2021/09/30 11:21:55;;;;;;;;;0.00;0.00;;;;;16.55;44.00;102346.97;5082867;27;45392;-78
2021/09/30 11:24:25;;;;;;;;;0.00;0.00;;;;;16.65;43.10;102367.22;5083302;27;45256;-77
2021/09/30 11:26:53;;;;;;;;;0.00;0.00;;;;;16.40;43.49;102314.44;5081050;28;45496;-78
2021/09/30 11:29:22;;;;;;;;;0.00;0.00;;;;;16.42;43.71;102319.69;5077436;27;45699;-78
2021/09/30 11:31:56;;;;;;;;;0.00;0.00;;;;;16.69;43.98;102362.88;5060739;28;45250;-78
2021/09/30 11:34:23;;;;;;;;;0.00;0.00;;;;;16.44;43.97;102299.53;5060998;28;45417;-77
2021/09/30 11:36:50;;;;;;;;;0.00;0.00;;;;;16.78;43.27;102354.19;5065488;28;46686;-78
2021/09/30 11:39:15;;;;;;;;;0.00;0.00;;;;;16.59;43.09;102314.56;5075616;27;46782;-78
2021/09/30 11:41:44;;;;;;;;;0.00;0.00;;;;;16.35;43.52;102292.47;5060827;28;45682;-78
2021/09/30 11:44:18;;;;;;;;;0.00;0.00;;;;;16.28;42.61;102290.66;5060611;28;45259;-78
2021/09/30 11:46:49;;;;;;;;;0.00;0.00;;;;;16.66;43.18;102360.22;5062213;28;45621;-78
2021/09/30 11:49:16;;;;;;;;;0.00;0.00;;;;;16.36;42.62;102283.72;5060889;28;45804;-77
2021/09/30 11:51:46;;;;;;;;;0.00;0.00;;;;;16.77;43.09;102344.53;5059934;28;45525;-78
2021/09/30 11:54:17;;;;;;;;;0.00;0.00;;;;;16.77;43.25;102341.88;5061019;28;45310;-78
2021/09/30 11:56:46;;;;;;;;;0.00;0.00;;;;;16.81;43.19;102327.91;5061460;28;45342;-78
2021/09/30 11:59:14;;;;;;;;;1.00;0.00;;;;;16.87;43.16;102335.84;5061862;27;47063;-78
2021/09/30 12:01:42;;;;;;;;;0.00;0.00;;;;;16.50;43.82;102243.53;5061997;28;45441;-78
2021/09/30 12:04:13;;;;;;;;;1.00;0.00;;;;;16.87;42.90;102277.97;5060784;28;45417;-78
2021/09/30 12:06:46;;;;;;;;;0.00;0.00;;;;;17.06;42.91;102291.28;5062743;27;45607;-78
2021/09/30 12:09:14;;;;;;;;;0.00;0.00;;;;;17.23;42.78;102304.53;5080451;27;46515;-78
2021/09/30 12:11:53;;;;;;;;;0.00;0.00;;;;;16.91;42.88;102226.28;5074452;27;45475;-78
2021/09/30 12:14:19;;;;;;;;;0.00;0.00;;;;;17.48;42.38;102300.28;5092459;27;45298;-78
2021/09/30 12:16:55;;;;;;;;;0.00;0.00;;;;;17.20;42.50;102247.53;5064477;28;45584;-78
2021/09/30 12:19:35;;;;;;;;;0.00;0.00;;;;;17.10;42.02;102228.16;5060387;28;48138;-78
2021/09/30 12:22:06;;;;;;;;;0.00;0.00;;;;;17.45;42.12;102278.31;5060802;28;45392;-78
2021/09/30 12:24:32;;;;;;;;;0.00;0.00;;;;;17.19;42.70;102243.16;5069040;28;45397;-78
2021/09/30 12:26:57;;;;;;;;;0.00;0.00;;;;;17.33;41.20;102242.31;5081420;27;45495;-76
2021/09/30 12:29:23;;;;;;;;;0.00;0.00;;;;;17.51;40.98;102275.72;5082175;27;45358;-78
2021/09/30 12:32:03;;;;;;;;;0.00;0.00;;;;;17.41;40.21;102253.75;5081265;27;45285;-77
2021/09/30 12:34:29;;;;;;;;;0.25;0.25;;;;;17.01;40.06;102182.50;5080597;27;45342;-77
2021/09/30 12:36:55;;;;;;;;;0.00;0.00;;;;;17.47;40.42;102263.44;5073566;28;45208;-76
2021/09/30 12:39:26;;;;;;;;;0.00;0.00;;;;;17.39;40.57;102252.00;5097539;27;45425;-76
2021/09/30 12:41:52;;;;;;;;;0.00;0.00;;;;;17.03;40.51;102207.94;5079655;28;45521;-77
2021/09/30 12:44:18;;;;;;;;;0.00;0.00;;;;;17.08;40.40;102215.88;5070675;27;45414;-77
2021/09/30 12:46:46;;;;;;;;;0.00;0.00;;;;;17.44;40.65;102260.78;5065421;28;45401;-77
2021/09/30 12:49:14;;;;;;;;;0.00;0.00;;;;;17.31;39.41;102237.03;5079176;28;45394;-78
2021/09/30 12:51:39;;;;;;;;;0.00;0.00;;;;;17.47;39.05;102248.53;5061014;27;45425;-78
2021/09/30 12:54:07;;;;;;;;;1.00;0.00;;;;;17.35;38.88;102215.13;5060467;28;45363;-80
2021/09/30 12:56:34;;;;;;;;;0.00;0.00;;;;;17.48;38.84;102250.28;5059924;28;45492;-77
2021/09/30 12:59:12;;;;;;;;;0.00;0.00;;;;;17.44;39.08;102248.50;5072284;28;46516;-76
2021/09/30 13:01:38;;;;;;;;;0.00;0.00;;;;;17.41;38.50;102239.72;5081541;27;45262;-77
2021/09/30 13:04:11;;;;;;;;;0.00;0.00;;;;;17.20;38.88;102196.63;5082670;28;45279;-77
2021/09/30 13:06:53;;;;;;;;;0.00;0.00;;;;;17.26;38.97;102190.53;5078049;27;45430;-76
2021/09/30 13:09:23;;;;;;;;;0.00;0.00;;;;;17.33;38.86;102198.44;5079746;28;47448;-76
2021/09/30 13:11:55;;;;;;;;;0.00;0.00;;;;;17.42;39.04;102212.50;5077064;27;45419;-76
2021/09/30 13:14:27;;;;;;;;;0.00;0.00;;;;;17.44;38.74;102218.66;5062174;28;45874;-76
2021/09/30 13:17:26;;;;;;;;;0.00;0.00;;;;;17.45;38.65;102210.78;5063796;28;45509;-76
2021/09/30 13:19:59;;;;;;;;;0.00;0.00;;;;;17.32;38.68;102191.44;5074155;28;45869;-76
2021/09/30 13:22:28;;;;;;;;;0.00;0.00;;;;;17.55;38.79;102210.81;5062971;28;45523;-77
2021/09/30 13:24:55;;;;;;;;;0.00;0.00;;;;;17.59;38.59;102207.31;5063234;28;45250;-77
2021/09/30 13:27:23;;;;;;;;;0.00;0.00;;;;;17.14;38.57;102122.94;5063164;28;45346;-76
2021/09/30 13:29:49;;;;;;;;;0.00;0.00;;;;;17.26;38.23;102151.03;5062821;28;46741;-77
2021/09/30 13:32:17;;;;;;;;;0.00;0.00;;;;;17.19;36.91;102145.78;5062466;28;45543;-77
2021/09/30 13:34:43;;;;;;;;;0.00;0.00;;;;;17.46;38.21;102188.84;5062653;28;45185;-77
2021/09/30 13:37:09;;;;;;;;;0.00;0.00;;;;;17.25;37.87;102154.56;5064972;28;45610;-78
2021/09/30 13:39:34;;;;;;;;;0.00;0.00;;;;;17.14;37.88;102136.09;5062991;28;45510;-76
2021/09/30 13:42:00;;;;;;;;;0.00;0.00;;;;;17.25;38.32;102146.66;5062905;28;45868;-76
2021/09/30 13:44:25;;;;;;;;;0.00;0.00;;;;;17.12;38.38;102107.16;5062635;28;45524;-75
2021/09/30 13:46:51;;;;;;;;;0.00;0.00;;;;;17.35;37.96;102127.41;5062742;28;45393;-78
2021/09/30 13:49:17;;;;;;;;;0.00;0.00;;;;;17.34;38.32;102101.97;5062368;28;46310;-78
2021/09/30 13:51:43;;;;;;;;;0.00;0.00;;;;;17.61;37.93;102134.44;5062813;28;45333;-77
2021/09/30 13:54:59;;;;;;;;;0.00;0.00;;;;;17.82;37.93;102172.22;5062685;28;45357;-79
2021/09/30 13:57:25;;;;;;;;;0.00;0.00;;;;;17.01;38.15;102051.88;5047164;28;45717;-83
2021/09/30 14:00:27;;;;;;;;;0.00;0.00;;;;;16.84;38.42;102033.38;5063962;28;45804;-84
2021/09/30 14:03:06;;;;;;;;;0.00;0.00;;;;;16.88;38.93;102023.75;5063620;28;45442;-81
2021/09/30 14:06:02;;;;;;;;;0.00;0.00;;;;;16.68;38.93;101986.03;5063039;28;45260;-77
2021/09/30 14:08:34;;;;;;;;;0.00;0.00;;;;;17.52;38.29;102105.50;5067074;28;45251;-77
2021/09/30 14:11:00;;;;;;;;;0.00;0.00;;;;;17.87;38.74;102141.50;5063650;28;46747;-80
2021/09/30 14:13:28;;;;;;;;;0.00;0.00;;;;;17.18;38.92;102001.94;5082232;27;45223;-79
2021/09/30 14:15:54;;;;;;;;;0.00;0.00;;;;;17.86;38.59;102080.03;5083011;27;45302;-76
2021/09/30 14:18:19;;;;;;;;;0.00;0.00;;;;;18.28;38.55;102128.38;5082877;28;45475;-77
2021/09/30 14:20:45;;;;;;;;;0.00;0.00;;;;;18.23;38.48;102091.47;5082680;27;46349;-78
2021/09/30 14:23:12;;;;;;;;;0.00;0.00;;;;;18.42;38.24;102109.88;5085254;27;45308;-82
2021/09/30 14:25:40;;;;;;;;;0.00;0.00;;;;;18.52;38.22;102105.44;5088472;28;45365;-84
2021/09/30 14:28:05;;;;;;;;;0.00;0.00;;;;;18.71;37.90;102109.78;5087272;28;45160;-80
2021/09/30 14:30:31;;;;;;;;;0.00;0.00;;;;;18.57;37.49;102072.94;5085205;27;45624;-80
2021/09/30 14:32:56;;;;;;;;;0.00;0.00;;;;;18.70;38.30;102075.50;5083018;27;45344;-81
2021/09/30 14:35:23;;;;;;;;;0.00;0.00;;;;;18.52;37.86;102028.97;5084218;27;45271;-82